Nearby METAR Reports


EGGW - Luton Airport, United Kingdom
Distance from station: ESE 6mi, 9km
Updated: Sun, 20-Jan-2019 12:20am GMT
Clear
Clear
 Wind from E
Wind: E 3 mph , 6 km/h
Temperature: -1°C
Dew Point: -1°C
Humidity: 100%
Barometer: 1011 hPa
Clouds: Clear
Visibility: 4 miles , 7 km
2019/01/20 00:20 EGGW 200020Z AUTO 08003KT 7000 NCD M01/M01 Q1011
EGTC - Cranfield, United Kingdom
Distance from station: NNW 13mi, 22km
Updated: Fri, 18-Jan-2019 5:50pm GMT
NOT Current
Clear
Clear
 Wind from SSE
Wind: SSE 10 mph , 17 km/h
Temperature: 4°C
Wind Chill: 0°C
Dew Point: 0°C
Humidity: 75%
Barometer: 1012 hPa
Summary: Clear
Visibility: greater than 7 miles , 10 km
2019/01/18 17:50 EGTC 181750Z 16009KT CAVOK 04/M00 Q1012

Metar display script from Saratoga-Weather.org

Powered by Cumulus v1.9.4 (1098)